メインページ
METAR-TAF:

METAR-TAF

空港 :

アンカレッジ, アラスカ州, アメリカ合衆国

テッド・スティーブンス・アンカレッジ国際空港

緯度: 61-10-28N, 経度: 149-59-46W, 海抜: 44m

現時点の気象観測

当レポートは46分前の13:53(UTC)に作成
北/北東の風 8kt
気温 -11°C
湿度 51%
気圧 1000 hPa
視程: 16.1km
晴天

METAR: PANC 211353Z 02008KT 10SM CLR M11/M19 A2953 RMK AO2 SLP004 T11061194 $

時間: 05:39 (14:39 UTC)

予報

当レポートは2時間50分前の11:49(UTC)に作成
予報は21日の 12時(UTC)から 22日の 18時(UTC)まで有効
北/北東の風 8kt
視程: 10km
高度12000ftの千切れ雲あり
22日の 0000時(UTC)から
の風 8kt
視程: 10km
高度4000ftの雲は散在している
高度6000ftの曇り
近辺でにわか雨

TAF: PANC 211149Z 2112/2218 02008KT P6SM BKN120 FM220000 36008KT P6SM VCSH SCT040 OVC060

4,000以上の空港の気象観測と天気予報(METAR報とTAF報)

利用可能な観測所は地図上に黄色い丸と赤い丸で示す。

丸の上にカーソルを重ねると観測所名を参照できる。

次にクリックすると気象観測と天気予報を参照できる。

マップの切り替え:黒色「×」印の緑ボタンをクリックして拡大、「-」印の緑ボタンをクリックして縮小、緑色の三角印をクリックして隣りの地図に切り替え


METAR-TAF: